Terminal Aerodrome Forecast
Issued by NWS Wilmington, OH

Current Version | Previous Version | Text Only | Print | Product List | Glossary Off
Versions: 1 2 3 4 5 6 7 8 9 10 11 12 13 14 15 16 17 18 19 20 21 22 23

000
FTUS41 KILN 221315 AAA
TAFDAY
TAF AMD
KDAY 221315Z 2213/2312 24011KT P6SM VCTS SCT040CB BKN200
      TEMPO 2214/2216 5SM -TSRA BR BKN035CB
     FM230100 19004KT P6SM SCT250=

USA.gov is the U.S. government's official web portal to all federal, state and local government web resources and services.